Time;durP1;ratioP1;P1;durP2;ratioP2;P2;SDS_P1;SDS_P2;PMS_P1;PMS_P2;Temp;Humidity;BMP_temperature;BMP_pressure;BME280_temperature;BME280_humidity;BME280_pressure;Samples;Min_cycle;Max_cycle;Signal;HPM_P1;HPM_P2
2022/01/01 00:01:16;;;;;;;83.15;48.08;;;;;;;;;;5044088;28;20032;-86
2022/01/01 00:03:41;;;;;;;71.22;42.97;;;;;;;;;;5037369;28;20029;-87
2022/01/01 00:06:07;;;;;;;57.78;32.67;;;;;;;;;;5045682;28;20064;-83
2022/01/01 00:08:32;;;;;;;49.90;27.80;;;;;;;;;;5049524;28;20028;-85
2022/01/01 00:10:58;;;;;;;51.40;28.25;;;;;;;;;;5038966;28;20436;-83
2022/01/01 00:13:23;;;;;;;49.33;27.33;;;;;;;;;;5046196;28;20033;-85
2022/01/01 00:15:49;;;;;;;41.70;26.90;;;;;;;;;;5049296;28;20033;-84
2022/01/01 00:18:16;;;;;;;65.25;37.40;;;;;;;;;;5034021;28;20397;-84
2022/01/01 00:20:42;;;;;;;52.95;27.80;;;;;;;;;;5042844;28;20028;-86
2022/01/01 00:23:07;;;;;;;30.90;18.70;;;;;;;;;;5038488;28;20488;-85
2022/01/01 00:25:33;;;;;;;27.25;15.95;;;;;;;;;;5048717;28;20036;-84
2022/01/01 00:27:58;;;;;;;26.98;14.90;;;;;;;;;;5050079;28;20128;-86
2022/01/01 00:30:24;;;;;;;31.15;18.17;;;;;;;;;;5044010;28;20037;-85
2022/01/01 00:32:49;;;;;;;27.98;15.60;;;;;;;;;;5048965;28;20491;-85
2022/01/01 00:35:15;;;;;;;32.38;17.30;;;;;;;;;;5035622;28;20108;-83
2022/01/01 00:37:41;;;;;;;38.45;21.50;;;;;;;;;;5045076;28;20457;-86
2022/01/01 00:40:07;;;;;;;34.22;20.33;;;;;;;;;;5053044;28;20047;-85
2022/01/01 00:42:32;;;;;;;49.05;27.58;;;;;;;;;;5029676;28;20032;-85
2022/01/01 00:44:58;;;;;;;47.33;27.55;;;;;;;;;;5042888;28;20020;-86
2022/01/01 00:47:23;;;;;;;43.72;25.50;;;;;;;;;;5039841;28;20403;-85
2022/01/01 00:49:49;;;;;;;37.83;22.00;;;;;;;;;;5049026;28;20380;-84
2022/01/01 00:52:14;;;;;;;66.72;32.88;;;;;;;;;;5053599;28;20104;-87
2022/01/01 00:54:41;;;;;;;76.57;42.85;;;;;;;;;;5030484;28;20052;-84
2022/01/01 00:57:06;;;;;;;69.35;36.92;;;;;;;;;;5051363;28;20087;-85
2022/01/01 00:59:32;;;;;;;66.40;37.22;;;;;;;;;;5053886;28;20812;-85
2022/01/01 01:01:58;;;;;;;80.70;44.92;;;;;;;;;;5050675;28;20017;-85
2022/01/01 01:04:24;;;;;;;70.50;40.03;;;;;;;;;;5041024;28;20029;-85
2022/01/01 01:06:50;;;;;;;71.55;36.50;;;;;;;;;;5049985;28;20116;-82
2022/01/01 01:09:16;;;;;;;67.35;39.20;;;;;;;;;;5047427;28;20100;-84
2022/01/01 01:11:45;;;;;;;60.90;34.50;;;;;;;;;;5047464;28;20021;-84
2022/01/01 01:14:20;;;;;;;67.20;34.72;;;;;;;;;;5043976;28;20057;-84
2022/01/01 01:16:47;;;;;;;64.90;34.63;;;;;;;;;;5049137;28;20020;-85
2022/01/01 01:19:13;;;;;;;59.13;31.45;;;;;;;;;;5046027;28;20029;-84
2022/01/01 01:21:38;;;;;;;56.17;28.65;;;;;;;;;;5051047;28;20086;-86
2022/01/01 01:24:04;;;;;;;52.15;28.30;;;;;;;;;;5061118;28;20033;-85
2022/01/01 01:26:30;;;;;;;53.30;29.63;;;;;;;;;;5053567;28;20059;-85
2022/01/01 01:28:57;;;;;;;53.92;29.42;;;;;;;;;;5042965;28;20060;-83
2022/01/01 01:31:24;;;;;;;49.72;26.85;;;;;;;;;;5046342;28;20029;-84
2022/01/01 01:33:50;;;;;;;54.15;29.15;;;;;;;;;;5056318;28;20369;-84
2022/01/01 01:36:16;;;;;;;45.47;26.10;;;;;;;;;;5067043;28;20036;-83
2022/01/01 01:38:41;;;;;;;67.47;35.92;;;;;;;;;;5055882;28;20272;-84
2022/01/01 01:41:09;;;;;;;53.38;29.27;;;;;;;;;;5043694;28;20051;-84
2022/01/01 01:43:34;;;;;;;56.35;31.77;;;;;;;;;;5059389;28;20025;-84
2022/01/01 01:46:04;;;;;;;55.40;30.25;;;;;;;;;;5053300;28;20028;-86
2022/01/01 01:48:31;;;;;;;51.58;26.40;;;;;;;;;;5054724;28;20025;-84
2022/01/01 01:50:57;;;;;;;50.80;28.15;;;;;;;;;;5063146;28;20071;-84
2022/01/01 01:53:23;;;;;;;55.10;27.58;;;;;;;;;;5059213;28;20040;-83
2022/01/01 01:55:49;;;;;;;50.10;27.52;;;;;;;;;;5054915;28;20035;-84
2022/01/01 01:58:16;;;;;;;50.10;25.45;;;;;;;;;;5055762;28;20036;-84
2022/01/01 02:03:16;;;;;;;45.72;24.52;;;;;;;;;;5050935;28;20116;-84
2022/01/01 02:05:45;;;;;;;53.90;27.20;;;;;;;;;;5055433;28;20044;-84
2022/01/01 02:08:12;;;;;;;57.78;29.80;;;;;;;;;;5053801;28;20103;-83
2022/01/01 02:10:38;;;;;;;59.08;30.88;;;;;;;;;;5055819;28;20460;-83
2022/01/01 02:13:18;;;;;;;64.55;30.25;;;;;;;;;;5042950;28;20105;-84
2022/01/01 02:16:26;;;;;;;61.05;29.83;;;;;;;;;;5049977;28;20028;-83
2022/01/01 02:18:29;;;;;;;63.15;30.88;;;;;;;;;;5056247;28;20117;-84
2022/01/01 02:21:00;;;;;;;55.83;27.60;;;;;;;;;;5053822;28;20119;-82
2022/01/01 02:23:27;;;;;;;60.25;29.77;;;;;;;;;;5040480;28;20121;-84
2022/01/01 02:25:56;;;;;;;56.88;29.73;;;;;;;;;;5040585;28;20028;-85
2022/01/01 02:28:22;;;;;;;57.65;30.33;;;;;;;;;;5053667;28;20020;-81
2022/01/01 02:30:49;;;;;;;57.63;29.17;;;;;;;;;;5053952;28;20028;-86
2022/01/01 02:33:15;;;;;;;53.80;29.55;;;;;;;;;;5052711;28;20476;-83
2022/01/01 02:35:41;;;;;;;51.28;28.08;;;;;;;;;;5045807;28;20040;-84
2022/01/01 02:38:07;;;;;;;46.22;24.90;;;;;;;;;;5042461;28;20028;-84
2022/01/01 02:40:33;;;;;;;44.17;23.83;;;;;;;;;;5062154;28;20025;-86
2022/01/01 02:42:58;;;;;;;48.03;24.83;;;;;;;;;;5039469;28;20162;-84
2022/01/01 02:45:24;;;;;;;46.13;27.13;;;;;;;;;;5054305;28;20548;-85
2022/01/01 02:47:50;;;;;;;50.60;27.77;;;;;;;;;;5046287;28;20021;-85
2022/01/01 02:50:15;;;;;;;51.67;28.13;;;;;;;;;;5044044;28;20038;-85
2022/01/01 02:52:41;;;;;;;47.03;25.23;;;;;;;;;;5041859;28;20025;-85
2022/01/01 02:55:07;;;;;;;50.80;25.58;;;;;;;;;;5057444;28;20376;-85
2022/01/01 02:57:33;;;;;;;41.67;23.98;;;;;;;;;;5039535;28;20457;-84
2022/01/01 02:59:59;;;;;;;54.03;26.98;;;;;;;;;;5058871;28;20049;-83
2022/01/01 03:02:25;;;;;;;43.67;23.98;;;;;;;;;;5052463;28;20028;-86
2022/01/01 03:04:51;;;;;;;43.72;19.85;;;;;;;;;;5057151;28;20086;-81
2022/01/01 03:07:16;;;;;;;42.20;22.75;;;;;;;;;;5047032;28;20036;-83
2022/01/01 03:09:42;;;;;;;32.22;17.58;;;;;;;;;;5051972;28;20671;-83
2022/01/01 03:12:09;;;;;;;24.55;13.50;;;;;;;;;;5054512;28;20108;-84
2022/01/01 03:14:36;;;;;;;30.70;18.17;;;;;;;;;;5051874;28;20032;-84
2022/01/01 03:17:06;;;;;;;25.45;15.50;;;;;;;;;;5053784;28;20473;-84
2022/01/01 03:19:32;;;;;;;26.02;15.05;;;;;;;;;;5058529;28;20499;-84
2022/01/01 03:21:59;;;;;;;15.70;8.20;;;;;;;;;;5051378;28;20036;-82
2022/01/01 03:24:25;;;;;;;21.85;13.50;;;;;;;;;;5052778;28;20032;-82
2022/01/01 03:26:51;;;;;;;19.08;11.70;;;;;;;;;;5051603;28;20102;-82
2022/01/01 03:29:16;;;;;;;22.40;12.38;;;;;;;;;;5055566;28;20078;-83
2022/01/01 03:31:42;;;;;;;10.75;6.38;;;;;;;;;;5059456;28;20028;-85
2022/01/01 03:34:10;;;;;;;20.35;12.48;;;;;;;;;;5057819;28;20024;-83
2022/01/01 03:36:36;;;;;;;28.10;15.38;;;;;;;;;;5051944;28;20025;-83
2022/01/01 03:39:03;;;;;;;35.08;17.42;;;;;;;;;;5061459;28;20035;-83
2022/01/01 03:41:28;;;;;;;32.17;16.40;;;;;;;;;;5045578;28;20025;-82
2022/01/01 03:43:54;;;;;;;22.75;12.90;;;;;;;;;;5052192;28;20025;-82
2022/01/01 03:46:19;;;;;;;21.30;13.02;;;;;;;;;;5062373;28;20166;-82
2022/01/01 03:48:45;;;;;;;17.40;9.82;;;;;;;;;;5054774;28;20040;-83
2022/01/01 03:51:10;;;;;;;26.50;11.60;;;;;;;;;;5051396;28;20017;-85
2022/01/01 03:53:36;;;;;;;18.10;10.43;;;;;;;;;;5051496;28;20020;-83
2022/01/01 03:56:08;;;;;;;22.83;13.43;;;;;;;;;;5051033;28;20039;-84
2022/01/01 03:58:36;;;;;;;23.40;13.32;;;;;;;;;;5034991;28;20036;-85
2022/01/01 04:01:02;;;;;;;26.35;15.02;;;;;;;;;;5056885;28;20376;-83
2022/01/01 04:03:28;;;;;;;26.77;14.38;;;;;;;;;;5037614;28;20031;-83
2022/01/01 04:05:54;;;;;;;30.20;15.60;;;;;;;;;;5057442;28;20828;-84
2022/01/01 04:08:19;;;;;;;32.92;17.73;;;;;;;;;;5057876;28;20029;-83
2022/01/01 04:10:45;;;;;;;34.85;19.35;;;;;;;;;;5040543;28;20029;-83
2022/01/01 04:13:11;;;;;;;24.65;13.30;;;;;;;;;;5044590;28;20028;-83
2022/01/01 04:15:38;;;;;;;18.55;9.63;;;;;;;;;;5057013;28;20103;-84
2022/01/01 04:18:11;;;;;;;2.72;1.42;;;;;;;;;;5040922;28;20059;-84
2022/01/01 04:20:37;;;;;;;0.45;0.40;;;;;;;;;;5054935;28;20057;-83
2022/01/01 04:23:08;;;;;;;0.30;0.30;;;;;;;;;;5047770;28;20473;-83
2022/01/01 04:25:34;;;;;;;1.20;0.90;;;;;;;;;;5047207;28;20064;-84
2022/01/01 04:27:59;;;;;;;0.20;0.20;;;;;;;;;;5043113;28;20053;-82
2022/01/01 04:30:28;;;;;;;11.73;4.70;;;;;;;;;;5038078;28;20025;-83
2022/01/01 04:32:54;;;;;;;18.33;10.10;;;;;;;;;;5052837;28;20534;-83
2022/01/01 04:35:20;;;;;;;15.85;9.80;;;;;;;;;;5048578;28;20028;-85
2022/01/01 04:37:45;;;;;;;11.10;7.03;;;;;;;;;;5038045;28;20400;-83
2022/01/01 04:40:12;;;;;;;19.48;10.73;;;;;;;;;;5046276;28;20384;-84
2022/01/01 04:42:38;;;;;;;21.80;11.57;;;;;;;;;;5051976;28;20025;-83
2022/01/01 04:45:04;;;;;;;21.90;12.43;;;;;;;;;;5042427;28;20119;-84
2022/01/01 04:47:30;;;;;;;23.90;12.02;;;;;;;;;;5050199;28;20057;-84
2022/01/01 04:49:55;;;;;;;19.27;11.88;;;;;;;;;;5045888;28;20048;-84
2022/01/01 04:52:21;;;;;;;14.40;8.40;;;;;;;;;;5044792;28;20036;-83
2022/01/01 04:54:48;;;;;;;10.35;6.55;;;;;;;;;;5050899;28;20025;-82
2022/01/01 04:57:14;;;;;;;2.38;1.52;;;;;;;;;;5052075;28;20393;-83
2022/01/01 04:59:41;;;;;;;1.00;0.75;;;;;;;;;;5047452;28;20037;-82
2022/01/01 05:02:07;;;;;;;14.23;9.20;;;;;;;;;;5042872;28;20036;-82
2022/01/01 05:04:33;;;;;;;5.65;2.88;;;;;;;;;;5046340;28;20385;-82
2022/01/01 05:06:58;;;;;;;8.93;4.68;;;;;;;;;;5045371;28;20075;-82
2022/01/01 05:09:27;;;;;;;1.08;0.63;;;;;;;;;;5038778;28;20468;-83
2022/01/01 05:11:53;;;;;;;4.30;2.33;;;;;;;;;;5049043;28;20029;-81
2022/01/01 05:14:18;;;;;;;9.07;5.32;;;;;;;;;;5051360;28;20120;-82
2022/01/01 05:16:45;;;;;;;5.35;2.60;;;;;;;;;;5052599;28;20099;-82
2022/01/01 05:19:10;;;;;;;14.23;9.48;;;;;;;;;;5046910;28;20036;-81
2022/01/01 05:21:36;;;;;;;13.75;8.20;;;;;;;;;;5053412;28;20040;-83
2022/01/01 05:24:06;;;;;;;15.85;8.93;;;;;;;;;;5050075;28;20025;-81
2022/01/01 05:26:32;;;;;;;14.02;8.15;;;;;;;;;;5047864;28;20021;-82
2022/01/01 05:28:57;;;;;;;14.18;8.73;;;;;;;;;;5052393;28;20362;-84
2022/01/01 05:31:26;;;;;;;16.98;9.85;;;;;;;;;;5037641;28;20099;-83
2022/01/01 05:33:52;;;;;;;15.82;9.45;;;;;;;;;;5053127;28;20545;-83
2022/01/01 05:36:18;;;;;;;16.52;10.32;;;;;;;;;;5033580;28;20026;-83
2022/01/01 05:38:45;;;;;;;18.75;10.35;;;;;;;;;;5039643;28;20021;-82
2022/01/01 05:41:12;;;;;;;16.42;10.43;;;;;;;;;;5048135;28;20032;-82
2022/01/01 05:43:38;;;;;;;18.02;7.63;;;;;;;;;;5035672;28;20021;-81
2022/01/01 05:46:03;;;;;;;18.70;11.88;;;;;;;;;;5049457;28;20544;-82
2022/01/01 05:48:29;;;;;;;21.50;15.55;;;;;;;;;;5045718;28;20025;-82
2022/01/01 05:50:55;;;;;;;18.55;11.20;;;;;;;;;;5052844;28;20334;-82
2022/01/01 05:53:20;;;;;;;21.55;13.43;;;;;;;;;;5034883;28;20032;-82
2022/01/01 05:55:47;;;;;;;21.98;13.70;;;;;;;;;;5037718;28;20032;-82
2022/01/01 05:58:13;;;;;;;21.92;12.27;;;;;;;;;;5052744;28;20054;-81
2022/01/01 06:00:39;;;;;;;16.20;9.55;;;;;;;;;;5051670;28;20109;-85
2022/01/01 06:03:04;;;;;;;6.25;3.05;;;;;;;;;;5051414;28;20074;-82
2022/01/01 06:05:31;;;;;;;3.13;1.35;;;;;;;;;;5050424;28;20090;-82
2022/01/01 06:07:58;;;;;;;0.70;0.70;;;;;;;;;;5050343;28;20421;-82
2022/01/01 06:10:25;;;;;;;0.55;0.45;;;;;;;;;;5037756;28;20025;-83
2022/01/01 06:12:51;;;;;;;0.93;0.80;;;;;;;;;;5049334;28;20098;-82
2022/01/01 06:15:17;;;;;;;1.38;1.08;;;;;;;;;;5037915;28;20025;-84
2022/01/01 06:17:42;;;;;;;1.52;0.68;;;;;;;;;;5037037;28;20029;-83
2022/01/01 06:20:09;;;;;;;0.63;0.50;;;;;;;;;;5047357;28;20112;-81
2022/01/01 06:22:36;;;;;;;2.03;1.05;;;;;;;;;;5060558;28;20052;-82
2022/01/01 06:25:03;;;;;;;1.75;0.80;;;;;;;;;;5056510;28;20496;-83
2022/01/01 06:27:29;;;;;;;1.45;0.88;;;;;;;;;;5045328;28;20032;-85
2022/01/01 06:29:59;;;;;;;0.60;0.40;;;;;;;;;;5053681;28;20017;-84
2022/01/01 06:32:32;;;;;;;0.80;0.60;;;;;;;;;;5059367;28;20025;-84
2022/01/01 06:34:59;;;;;;;1.40;0.70;;;;;;;;;;5038713;28;20049;-85
2022/01/01 06:37:25;;;;;;;0.60;0.50;;;;;;;;;;5037239;28;20100;-85
2022/01/01 06:39:51;;;;;;;0.47;0.47;;;;;;;;;;5035917;28;20473;-85
2022/01/01 06:42:16;;;;;;;1.63;0.95;;;;;;;;;;5054022;28;20111;-84
2022/01/01 06:44:42;;;;;;;1.85;1.00;;;;;;;;;;5035109;28;20029;-85
2022/01/01 06:47:09;;;;;;;1.10;0.70;;;;;;;;;;5056590;28;20142;-82
2022/01/01 06:49:35;;;;;;;1.05;0.60;;;;;;;;;;5052888;28;20025;-84
2022/01/01 06:52:01;;;;;;;1.25;0.63;;;;;;;;;;5040932;28;20071;-86
2022/01/01 06:54:26;;;;;;;1.67;1.00;;;;;;;;;;5058109;28;20052;-85
2022/01/01 06:56:52;;;;;;;1.52;0.90;;;;;;;;;;5063248;28;20029;-84
2022/01/01 06:59:17;;;;;;;2.47;1.30;;;;;;;;;;5040225;28;20112;-85
2022/01/01 07:01:43;;;;;;;1.77;1.27;;;;;;;;;;5058027;28;20388;-83
2022/01/01 07:04:08;;;;;;;1.13;0.68;;;;;;;;;;5037627;28;20406;-85
2022/01/01 07:06:34;;;;;;;1.15;0.70;;;;;;;;;;5037381;28;20037;-84
2022/01/01 07:09:00;;;;;;;0.98;0.45;;;;;;;;;;5052022;28;20025;-82
2022/01/01 07:11:26;;;;;;;1.58;0.73;;;;;;;;;;5051361;28;20029;-83
2022/01/01 07:13:53;;;;;;;1.05;0.90;;;;;;;;;;5042850;28;20032;-84
2022/01/01 07:16:20;;;;;;;1.35;0.75;;;;;;;;;;5042608;28;20029;-84
2022/01/01 07:18:45;;;;;;;2.15;1.00;;;;;;;;;;5053603;28;20100;-85
2022/01/01 07:21:11;;;;;;;1.42;0.90;;;;;;;;;;5057733;28;20108;-83
2022/01/01 07:23:37;;;;;;;1.75;1.27;;;;;;;;;;5033271;28;20540;-82
2022/01/01 07:26:02;;;;;;;2.28;1.60;;;;;;;;;;5043107;28;20029;-81
2022/01/01 07:28:28;;;;;;;1.45;0.85;;;;;;;;;;5049374;28;20031;-83
2022/01/01 07:30:53;;;;;;;2.35;1.30;;;;;;;;;;5047264;28;20024;-83
2022/01/01 07:33:19;;;;;;;2.53;1.63;;;;;;;;;;5050034;28;20029;-83
2022/01/01 07:35:44;;;;;;;3.40;1.75;;;;;;;;;;5045253;28;20490;-84
2022/01/01 07:38:10;;;;;;;2.08;1.17;;;;;;;;;;5049695;28;20044;-82
2022/01/01 07:40:38;;;;;;;1.58;0.90;;;;;;;;;;5036699;28;20511;-82
2022/01/01 07:43:13;;;;;;;2.17;1.25;;;;;;;;;;5048572;28;20026;-84
2022/01/01 07:45:40;;;;;;;3.33;1.60;;;;;;;;;;5049346;28;20053;-84
2022/01/01 07:48:06;;;;;;;2.30;1.35;;;;;;;;;;5050287;28;20025;-86
2022/01/01 07:50:32;;;;;;;1.45;0.90;;;;;;;;;;5053490;28;20020;-84
2022/01/01 07:52:58;;;;;;;6.43;1.17;;;;;;;;;;5053737;28;20440;-83
2022/01/01 07:55:23;;;;;;;2.97;1.40;;;;;;;;;;5038881;28;20052;-83
2022/01/01 07:57:48;;;;;;;3.13;1.27;;;;;;;;;;5050816;28;20063;-82
2022/01/01 08:00:14;;;;;;;1.60;0.88;;;;;;;;;;5052287;28;20342;-85
2022/01/01 08:02:44;;;;;;;2.40;0.95;;;;;;;;;;5046362;28;20106;-83
2022/01/01 08:05:11;;;;;;;3.55;2.20;;;;;;;;;;5036491;28;20041;-83
2022/01/01 08:07:37;;;;;;;2.53;1.38;;;;;;;;;;5049581;28;20078;-82
2022/01/01 08:10:05;;;;;;;1.77;0.98;;;;;;;;;;5050831;28;20067;-84
2022/01/01 08:12:30;;;;;;;1.70;0.88;;;;;;;;;;5051680;28;20183;-83
2022/01/01 08:14:57;;;;;;;1.73;1.23;;;;;;;;;;5034869;28;20112;-83
2022/01/01 08:17:23;;;;;;;2.63;1.40;;;;;;;;;;5040179;28;20075;-83
2022/01/01 08:19:49;;;;;;;2.28;1.13;;;;;;;;;;5039653;28;20033;-82
2022/01/01 08:22:15;;;;;;;1.50;0.70;;;;;;;;;;5050956;28;20042;-82
2022/01/01 08:24:41;;;;;;;2.25;1.30;;;;;;;;;;5044362;28;20024;-82
2022/01/01 08:27:08;;;;;;;1.60;1.20;;;;;;;;;;5053603;28;20025;-84
2022/01/01 08:29:36;;;;;;;3.00;1.50;;;;;;;;;;5054017;28;20029;-83
2022/01/01 08:32:01;;;;;;;1.33;0.95;;;;;;;;;;5048995;28;20028;-83
2022/01/01 08:34:27;;;;;;;1.80;1.20;;;;;;;;;;5051836;28;20036;-83
2022/01/01 08:36:53;;;;;;;3.97;1.70;;;;;;;;;;5041488;28;20107;-84
2022/01/01 08:39:19;;;;;;;1.25;1.02;;;;;;;;;;5050358;28;20028;-81
2022/01/01 08:41:45;;;;;;;3.08;1.48;;;;;;;;;;5049673;28;21311;-83
2022/01/01 08:44:12;;;;;;;2.17;1.45;;;;;;;;;;5050552;28;20033;-82
2022/01/01 08:46:37;;;;;;;2.42;1.48;;;;;;;;;;5038174;28;20790;-84
2022/01/01 08:49:05;;;;;;;1.67;1.00;;;;;;;;;;5052658;28;20025;-83
2022/01/01 08:51:34;;;;;;;1.90;1.13;;;;;;;;;;5045500;28;20437;-82
2022/01/01 08:54:00;;;;;;;2.22;1.30;;;;;;;;;;5047506;28;20027;-82
2022/01/01 08:56:32;;;;;;;1.65;1.30;;;;;;;;;;5051540;28;20485;-81
2022/01/01 08:58:58;;;;;;;2.92;1.67;;;;;;;;;;5043526;28;20024;-83
2022/01/01 09:01:23;;;;;;;2.20;1.58;;;;;;;;;;5052613;28;20033;-83
2022/01/01 09:03:49;;;;;;;2.28;1.00;;;;;;;;;;5036678;28;20353;-83
2022/01/01 09:06:14;;;;;;;2.08;1.08;;;;;;;;;;5047648;28;20087;-83
2022/01/01 09:08:41;;;;;;;1.85;1.20;;;;;;;;;;5035791;28;20115;-82
2022/01/01 09:11:08;;;;;;;1.77;1.33;;;;;;;;;;5048713;28;20037;-83
2022/01/01 09:13:43;;;;;;;3.50;1.80;;;;;;;;;;5053162;28;20025;-82
2022/01/01 09:16:16;;;;;;;2.58;1.50;;;;;;;;;;5044007;28;20103;-83
2022/01/01 09:18:45;;;;;;;2.92;1.80;;;;;;;;;;5049490;28;20033;-85
2022/01/01 09:21:11;;;;;;;4.53;2.45;;;;;;;;;;5052954;28;20045;-82
2022/01/01 09:23:37;;;;;;;2.70;1.88;;;;;;;;;;5050397;28;20024;-81
2022/01/01 09:26:04;;;;;;;2.67;1.60;;;;;;;;;;5034924;28;20036;-82
2022/01/01 09:28:30;;;;;;;2.20;1.50;;;;;;;;;;5044262;28;20469;-81
2022/01/01 09:30:57;;;;;;;2.25;1.20;;;;;;;;;;5042846;28;20057;-80
2022/01/01 09:33:27;;;;;;;2.13;1.35;;;;;;;;;;5047389;28;20576;-80
2022/01/01 09:35:52;;;;;;;1.73;1.30;;;;;;;;;;5052010;28;20038;-81
2022/01/01 09:38:18;;;;;;;3.83;1.92;;;;;;;;;;5046670;28;20480;-81
2022/01/01 09:40:43;;;;;;;3.75;1.90;;;;;;;;;;5050755;28;20543;-83
2022/01/01 09:43:10;;;;;;;5.95;3.22;;;;;;;;;;5035292;28;20098;-81
2022/01/01 09:45:38;;;;;;;2.92;1.70;;;;;;;;;;5049472;28;20063;-80
2022/01/01 09:48:04;;;;;;;4.22;2.22;;;;;;;;;;5051037;28;20028;-80
2022/01/01 09:50:30;;;;;;;5.68;3.25;;;;;;;;;;5030946;28;20021;-80
2022/01/01 09:52:56;;;;;;;4.35;2.65;;;;;;;;;;5044234;28;20038;-81
2022/01/01 09:55:22;;;;;;;4.15;2.75;;;;;;;;;;5052837;28;20035;-79
2022/01/01 09:57:48;;;;;;;4.60;2.55;;;;;;;;;;5048860;28;20040;-80
2022/01/01 10:00:14;;;;;;;3.67;1.75;;;;;;;;;;5044807;28;20025;-80
2022/01/01 10:02:40;;;;;;;2.75;1.70;;;;;;;;;;5047117;28;20048;-80
2022/01/01 10:05:06;;;;;;;2.15;1.55;;;;;;;;;;5052094;28;20021;-79
2022/01/01 10:07:32;;;;;;;3.78;2.67;;;;;;;;;;5026603;28;20037;-81
2022/01/01 10:10:15;;;;;;;5.45;2.95;;;;;;;;;;5032397;28;20025;-81
2022/01/01 10:12:43;;;;;;;3.20;1.70;;;;;;;;;;5043856;28;20033;-79
2022/01/01 10:15:09;;;;;;;6.07;3.70;;;;;;;;;;5045900;28;20021;-80
2022/01/01 10:17:34;;;;;;;4.18;2.10;;;;;;;;;;5051878;28;20032;-81
2022/01/01 10:20:02;;;;;;;3.10;2.33;;;;;;;;;;5049827;28;20059;-80
2022/01/01 10:22:28;;;;;;;3.15;1.90;;;;;;;;;;5048187;28;20485;-82
2022/01/01 10:28:04;;;;;;;3.35;2.13;;;;;;;;;;5050790;28;20535;-80
2022/01/01 10:30:39;;;;;;;5.15;2.55;;;;;;;;;;5049677;28;20075;-79
2022/01/01 10:33:09;;;;;;;3.60;1.98;;;;;;;;;;5045606;28;20040;-80
2022/01/01 10:35:35;;;;;;;2.65;1.92;;;;;;;;;;5049387;28;20056;-81
2022/01/01 10:38:04;;;;;;;5.20;2.08;;;;;;;;;;5052850;28;20484;-80
2022/01/01 10:40:29;;;;;;;2.50;1.50;;;;;;;;;;5033862;28;20452;-80
2022/01/01 10:42:55;;;;;;;3.45;2.13;;;;;;;;;;5045149;28;20109;-79
2022/01/01 10:45:41;;;;;;;3.08;1.83;;;;;;;;;;5047438;28;20083;-80
2022/01/01 10:48:18;;;;;;;3.58;2.40;;;;;;;;;;5043679;28;20139;-81
2022/01/01 10:50:46;;;;;;;3.72;2.60;;;;;;;;;;5027438;28;20492;-80
2022/01/01 10:53:26;;;;;;;13.68;8.40;;;;;;;;;;5043635;28;20081;-81
2022/01/01 10:55:55;;;;;;;;;;;;;;;;;;5043521;28;20380;-81
2022/01/01 10:58:28;;;;;;;3.50;2.05;;;;;;;;;;5038240;28;19940;-81
2022/01/01 11:01:08;;;;;;;6.25;2.75;;;;;;;;;;5050206;28;20025;-84
2022/01/01 11:03:38;;;;;;;2.38;1.65;;;;;;;;;;5046983;28;20086;-84
2022/01/01 11:06:07;;;;;;;4.07;2.08;;;;;;;;;;5048044;28;20111;-82
2022/01/01 11:08:33;;;;;;;2.97;2.05;;;;;;;;;;5047512;28;20028;-82
2022/01/01 11:10:59;;;;;;;5.43;3.00;;;;;;;;;;5032061;28;20028;-82
2022/01/01 11:13:26;;;;;;;3.83;2.50;;;;;;;;;;5045153;28;20504;-83
2022/01/01 11:15:52;;;;;;;4.50;1.80;;;;;;;;;;5045508;28;20029;-80
2022/01/01 11:18:18;;;;;;;6.50;3.28;;;;;;;;;;5034487;28;20465;-80
2022/01/01 11:20:44;;;;;;;5.57;2.58;;;;;;;;;;5050994;28;20053;-83
2022/01/01 11:23:13;;;;;;;3.85;2.20;;;;;;;;;;5034194;28;20041;-81
2022/01/01 11:25:40;;;;;;;4.32;2.65;;;;;;;;;;5047810;28;20031;-80
2022/01/01 11:28:11;;;;;;;3.72;2.42;;;;;;;;;;5045326;28;20025;-81
2022/01/01 11:30:42;;;;;;;3.75;2.35;;;;;;;;;;5033766;28;20035;-81
2022/01/01 11:33:15;;;;;;;4.38;2.28;;;;;;;;;;5031924;28;20071;-83
2022/01/01 11:35:44;;;;;;;4.22;2.60;;;;;;;;;;5031858;28;20029;-83
2022/01/01 11:38:15;;;;;;;4.47;2.67;;;;;;;;;;5036168;28;20116;-82
2022/01/01 11:41:44;;;;;;;6.80;2.58;;;;;;;;;;5037215;28;20033;-81
2022/01/01 11:44:32;;;;;;;3.30;2.15;;;;;;;;;;4964598;28;20190;-82
2022/01/01 11:47:01;;;;;;;3.15;2.17;;;;;;;;;;4965237;28;20469;-81
2022/01/01 11:49:28;;;;;;;18.40;10.20;;;;;;;;;;5020285;28;20045;-83
2022/01/01 11:51:55;;;;;;;5.47;2.28;;;;;;;;;;5044189;28;20116;-78
2022/01/01 11:54:32;;;;;;;4.82;2.42;;;;;;;;;;5045707;28;20451;-81
2022/01/01 11:57:05;;;;;;;4.15;2.38;;;;;;;;;;5046255;28;20057;-82
2022/01/01 11:59:39;;;;;;;3.47;2.17;;;;;;;;;;5050048;28;20531;-81
2022/01/01 12:02:24;;;;;;;4.22;3.13;;;;;;;;;;5030373;28;20028;-82
2022/01/01 12:04:55;;;;;;;5.15;2.70;;;;;;;;;;5039387;28;21671;-80
2022/01/01 12:07:21;;;;;;;6.60;4.10;;;;;;;;;;5048139;28;20017;-81
2022/01/01 12:10:02;;;;;;;5.97;4.13;;;;;;;;;;5048252;28;20986;-79
2022/01/01 12:12:52;;;;;;;7.32;3.47;;;;;;;;;;5045072;28;20033;-82
2022/01/01 12:15:35;;;;;;;7.07;4.45;;;;;;;;;;5048054;28;20021;-81
2022/01/01 12:18:20;;;;;;;11.02;4.07;;;;;;;;;;5045860;28;20028;-80
2022/01/01 12:21:01;;;;;;;6.53;4.22;;;;;;;;;;5046839;28;20476;-83
2022/01/01 12:23:33;;;;;;;12.57;6.57;;;;;;;;;;5009951;28;20049;-84
2022/01/01 12:25:59;;;;;;;13.10;6.25;;;;;;;;;;5030242;28;20047;-82
2022/01/01 12:28:28;;;;;;;13.07;7.50;;;;;;;;;;5034470;28;20021;-82
2022/01/01 12:31:03;;;;;;;13.23;7.20;;;;;;;;;;5033908;28;20021;-82
2022/01/01 12:33:38;;;;;;;8.98;5.90;;;;;;;;;;5034465;28;20385;-82
2022/01/01 12:36:07;;;;;;;13.90;8.48;;;;;;;;;;5033501;28;20109;-81
2022/01/01 12:38:33;;;;;;;12.75;7.43;;;;;;;;;;5034210;28;20033;-82
2022/01/01 12:41:19;;;;;;;12.70;8.00;;;;;;;;;;5015766;28;20030;-81
2022/01/01 12:44:01;;;;;;;11.38;6.70;;;;;;;;;;5034422;28;20026;-81
2022/01/01 12:46:30;;;;;;;8.82;5.97;;;;;;;;;;5033600;28;20116;-81
2022/01/01 12:48:58;;;;;;;5.93;4.18;;;;;;;;;;5016352;28;20428;-80
2022/01/01 12:51:26;;;;;;;4.80;3.67;;;;;;;;;;5031782;28;20033;-80
2022/01/01 12:53:57;;;;;;;5.07;3.25;;;;;;;;;;5033440;28;20408;-80
2022/01/01 12:56:24;;;;;;;5.15;3.60;;;;;;;;;;5027235;28;20087;-80
2022/01/01 12:58:53;;;;;;;5.78;4.13;;;;;;;;;;5034047;28;20436;-80
2022/01/01 13:01:25;;;;;;;5.70;4.32;;;;;;;;;;5029905;28;20474;-79
2022/01/01 13:03:56;;;;;;;6.32;3.97;;;;;;;;;;5016359;28;20022;-81
2022/01/01 13:06:27;;;;;;;6.60;4.47;;;;;;;;;;5034041;28;20626;-80
2022/01/01 13:08:55;;;;;;;7.00;3.75;;;;;;;;;;5015823;28;20037;-83
2022/01/01 13:11:20;;;;;;;4.40;3.05;;;;;;;;;;5033000;28;20485;-81
2022/01/01 13:13:46;;;;;;;6.05;3.85;;;;;;;;;;5036643;28;20108;-80
2022/01/01 13:16:12;;;;;;;5.72;3.75;;;;;;;;;;5033329;28;20036;-81
2022/01/01 13:18:37;;;;;;;4.97;4.07;;;;;;;;;;5036082;28;20025;-81
2022/01/01 13:21:03;;;;;;;7.00;3.55;;;;;;;;;;5016311;28;20068;-82
2022/01/01 13:23:29;;;;;;;5.10;3.63;;;;;;;;;;5052630;28;20025;-81
2022/01/01 13:25:55;;;;;;;4.93;3.70;;;;;;;;;;5050859;28;20049;-82
2022/01/01 13:28:29;;;;;;;5.00;3.90;;;;;;;;;;5047307;28;20029;-84
2022/01/01 13:30:54;;;;;;;4.00;2.78;;;;;;;;;;5051158;28;20036;-82
2022/01/01 13:33:22;;;;;;;4.93;3.17;;;;;;;;;;5044880;28;20029;-81
2022/01/01 13:35:50;;;;;;;3.40;2.47;;;;;;;;;;5051502;28;20047;-83
2022/01/01 13:38:16;;;;;;;4.35;2.83;;;;;;;;;;5052058;28;20033;-83
2022/01/01 13:40:55;;;;;;;4.00;3.00;;;;;;;;;;5036108;28;20040;-83
2022/01/01 13:43:30;;;;;;;5.13;3.42;;;;;;;;;;5049122;28;20087;-82
2022/01/01 13:46:13;;;;;;;6.10;4.10;;;;;;;;;;5030973;28;20585;-81
2022/01/01 13:48:50;;;;;;;4.82;3.55;;;;;;;;;;5037211;28;20079;-82
2022/01/01 13:51:20;;;;;;;6.03;3.75;;;;;;;;;;5049520;28;20052;-81
2022/01/01 13:53:47;;;;;;;5.18;3.15;;;;;;;;;;5043827;28;20025;-82
2022/01/01 13:56:16;;;;;;;5.63;3.95;;;;;;;;;;5057006;28;20477;-83
2022/01/01 13:58:44;;;;;;;5.43;4.03;;;;;;;;;;5058497;28;20056;-84
2022/01/01 14:01:13;;;;;;;6.05;3.40;;;;;;;;;;5043914;28;20025;-85
2022/01/01 14:03:41;;;;;;;5.45;3.60;;;;;;;;;;5045821;28;20025;-82
2022/01/01 14:06:07;;;;;;;7.03;4.88;;;;;;;;;;5050475;28;20060;-82
2022/01/01 14:08:33;;;;;;;6.57;4.85;;;;;;;;;;5045167;28;20029;-81
2022/01/01 14:11:01;;;;;;;6.07;5.03;;;;;;;;;;5046224;28;20031;-84
2022/01/01 14:13:34;;;;;;;8.27;4.82;;;;;;;;;;5048750;28;20036;-83
2022/01/01 14:16:01;;;;;;;5.40;3.65;;;;;;;;;;5048224;28;20377;-85
2022/01/01 14:18:28;;;;;;;7.13;5.63;;;;;;;;;;5033875;28;20139;-83
2022/01/01 14:20:54;;;;;;;9.88;5.15;;;;;;;;;;5046061;28;20017;-83
2022/01/01 14:23:27;;;;;;;8.00;5.47;;;;;;;;;;5033239;28;20791;-84
2022/01/01 14:25:59;;;;;;;6.38;4.40;;;;;;;;;;5048931;28;20451;-82
2022/01/01 14:28:25;;;;;;;7.60;6.25;;;;;;;;;;5036067;28;20032;-84
2022/01/01 14:30:52;;;;;;;7.15;5.05;;;;;;;;;;5034586;28;20078;-82
2022/01/01 14:33:19;;;;;;;8.38;6.63;;;;;;;;;;5047057;28;20022;-82
2022/01/01 14:35:45;;;;;;;13.60;9.98;;;;;;;;;;5045499;28;20116;-83
2022/01/01 14:38:10;;;;;;;8.30;5.00;;;;;;;;;;5037749;28;20119;-82
2022/01/01 14:40:36;;;;;;;8.07;5.93;;;;;;;;;;5043070;28;20462;-83
2022/01/01 14:43:02;;;;;;;6.63;5.07;;;;;;;;;;5049961;28;20025;-83